sensor_id;sensor_type;location;lat;lon;timestamp;P1;durP1;ratioP1;P2;durP2;ratioP2
11346;SDS011;5728;42.722;23.258;2023-05-07T02:10:33;11.20;;;8.10;;
11346;SDS011;5728;42.722;23.258;2023-05-07T02:42:29;12.13;;;7.50;;
11346;SDS011;5728;42.722;23.258;2023-05-07T02:44:55;10.07;;;7.63;;
11346;SDS011;5728;42.722;23.258;2023-05-07T04:00:44;9.43;;;7.10;;
11346;SDS011;5728;42.722;23.258;2023-05-07T04:03:11;12.03;;;7.63;;
11346;SDS011;5728;42.722;23.258;2023-05-07T04:05:38;10.10;;;7.40;;
11346;SDS011;5728;42.722;23.258;2023-05-07T04:08:04;11.53;;;7.63;;
11346;SDS011;5728;42.722;23.258;2023-05-07T04:10:31;9.83;;;8.33;;
11346;SDS011;5728;42.722;23.258;2023-05-07T04:12:58;10.70;;;7.77;;
11346;SDS011;5728;42.722;23.258;2023-05-07T04:15:26;10.50;;;7.20;;
11346;SDS011;5728;42.722;23.258;2023-05-07T04:17:52;8.63;;;6.47;;
11346;SDS011;5728;42.722;23.258;2023-05-07T04:20:19;12.47;;;7.63;;
11346;SDS011;5728;42.722;23.258;2023-05-07T04:22:46;8.37;;;6.17;;
11346;SDS011;5728;42.722;23.258;2023-05-07T04:25:13;8.30;;;6.57;;
11346;SDS011;5728;42.722;23.258;2023-05-07T04:27:39;7.57;;;6.57;;
11346;SDS011;5728;42.722;23.258;2023-05-07T04:30:06;7.67;;;6.80;;
11346;SDS011;5728;42.722;23.258;2023-05-07T04:32:35;10.23;;;7.10;;
11346;SDS011;5728;42.722;23.258;2023-05-07T04:35:02;10.77;;;6.53;;
11346;SDS011;5728;42.722;23.258;2023-05-07T04:37:31;8.53;;;6.27;;
11346;SDS011;5728;42.722;23.258;2023-05-07T04:39:58;11.50;;;7.23;;
11346;SDS011;5728;42.722;23.258;2023-05-07T04:42:25;12.50;;;7.40;;
11346;SDS011;5728;42.722;23.258;2023-05-07T04:44:52;10.80;;;7.17;;
11346;SDS011;5728;42.722;23.258;2023-05-07T04:47:19;9.20;;;6.97;;
11346;SDS011;5728;42.722;23.258;2023-05-07T04:49:47;12.10;;;7.27;;
11346;SDS011;5728;42.722;23.258;2023-05-07T04:52:14;9.20;;;7.13;;
11346;SDS011;5728;42.722;23.258;2023-05-07T04:54:41;7.37;;;6.30;;
11346;SDS011;5728;42.722;23.258;2023-05-07T04:57:08;9.57;;;7.47;;
11346;SDS011;5728;42.722;23.258;2023-05-07T04:59:35;12.23;;;6.90;;
11346;SDS011;5728;42.722;23.258;2023-05-07T05:02:02;9.47;;;6.53;;
11346;SDS011;5728;42.722;23.258;2023-05-07T05:04:29;11.50;;;6.40;;
11346;SDS011;5728;42.722;23.258;2023-05-07T05:06:58;10.47;;;6.87;;
11346;SDS011;5728;42.722;23.258;2023-05-07T05:09:24;7.80;;;6.60;;
11346;SDS011;5728;42.722;23.258;2023-05-07T05:11:51;10.30;;;6.57;;
11346;SDS011;5728;42.722;23.258;2023-05-07T05:14:18;8.37;;;6.87;;
11346;SDS011;5728;42.722;23.258;2023-05-07T05:16:44;8.93;;;6.60;;
11346;SDS011;5728;42.722;23.258;2023-05-07T05:19:11;9.83;;;6.50;;
11346;SDS011;5728;42.722;23.258;2023-05-07T05:21:38;14.83;;;7.80;;
11346;SDS011;5728;42.722;23.258;2023-05-07T05:24:06;13.00;;;7.10;;
11346;SDS011;5728;42.722;23.258;2023-05-07T05:26:33;10.90;;;7.10;;
11346;SDS011;5728;42.722;23.258;2023-05-07T05:29:00;8.10;;;6.80;;
11346;SDS011;5728;42.722;23.258;2023-05-07T05:31:26;8.83;;;7.20;;
11346;SDS011;5728;42.722;23.258;2023-05-07T05:33:53;11.77;;;6.60;;
11346;SDS011;5728;42.722;23.258;2023-05-07T05:36:20;9.85;;;6.95;;
11346;SDS011;5728;42.722;23.258;2023-05-07T05:38:46;7.72;;;6.55;;
11346;SDS011;5728;42.722;23.258;2023-05-07T05:41:14;13.15;;;7.53;;
11346;SDS011;5728;42.722;23.258;2023-05-07T05:43:41;9.02;;;7.15;;
11346;SDS011;5728;42.722;23.258;2023-05-07T05:46:08;8.70;;;7.15;;
11346;SDS011;5728;42.722;23.258;2023-05-07T05:48:36;9.30;;;6.95;;
11346;SDS011;5728;42.722;23.258;2023-05-07T05:51:03;10.60;;;7.85;;
11346;SDS011;5728;42.722;23.258;2023-05-07T05:53:30;8.32;;;7.10;;
11346;SDS011;5728;42.722;23.258;2023-05-07T05:55:56;9.13;;;7.60;;
11346;SDS011;5728;42.722;23.258;2023-05-07T05:58:24;11.52;;;7.20;;
11346;SDS011;5728;42.722;23.258;2023-05-07T06:00:51;9.98;;;7.43;;
11346;SDS011;5728;42.722;23.258;2023-05-07T06:03:18;10.68;;;7.65;;
11346;SDS011;5728;42.722;23.258;2023-05-07T06:05:45;14.40;;;7.13;;
11346;SDS011;5728;42.722;23.258;2023-05-07T06:08:11;13.13;;;7.93;;
11346;SDS011;5728;42.722;23.258;2023-05-07T06:10:38;10.73;;;7.32;;
11346;SDS011;5728;42.722;23.258;2023-05-07T06:13:05;13.27;;;8.02;;
11346;SDS011;5728;42.722;23.258;2023-05-07T06:15:33;10.05;;;7.82;;
11346;SDS011;5728;42.722;23.258;2023-05-07T06:18:00;10.13;;;6.75;;
11346;SDS011;5728;42.722;23.258;2023-05-07T06:20:27;17.88;;;7.85;;
11346;SDS011;5728;42.722;23.258;2023-05-07T06:22:54;8.68;;;7.78;;
11346;SDS011;5728;42.722;23.258;2023-05-07T06:25:20;9.45;;;7.47;;
11346;SDS011;5728;42.722;23.258;2023-05-07T06:27:47;10.90;;;7.97;;
11346;SDS011;5728;42.722;23.258;2023-05-07T06:30:14;11.07;;;7.43;;
11346;SDS011;5728;42.722;23.258;2023-05-07T06:32:42;12.05;;;7.95;;
11346;SDS011;5728;42.722;23.258;2023-05-07T06:35:09;10.75;;;7.88;;
11346;SDS011;5728;42.722;23.258;2023-05-07T06:37:35;9.90;;;8.23;;
11346;SDS011;5728;42.722;23.258;2023-05-07T06:40:04;11.13;;;7.50;;
11346;SDS011;5728;42.722;23.258;2023-05-07T06:42:32;10.73;;;7.72;;
11346;SDS011;5728;42.722;23.258;2023-05-07T06:44:58;12.68;;;8.63;;
11346;SDS011;5728;42.722;23.258;2023-05-07T06:47:25;8.80;;;7.88;;
11346;SDS011;5728;42.722;23.258;2023-05-07T06:49:53;12.75;;;8.25;;
11346;SDS011;5728;42.722;23.258;2023-05-07T06:52:20;14.48;;;8.60;;
11346;SDS011;5728;42.722;23.258;2023-05-07T06:54:47;10.23;;;8.35;;
11346;SDS011;5728;42.722;23.258;2023-05-07T06:57:14;11.52;;;8.50;;
11346;SDS011;5728;42.722;23.258;2023-05-07T06:59:41;10.07;;;8.15;;
11346;SDS011;5728;42.722;23.258;2023-05-07T07:02:07;9.02;;;7.95;;
11346;SDS011;5728;42.722;23.258;2023-05-07T07:04:34;11.88;;;9.45;;
11346;SDS011;5728;42.722;23.258;2023-05-07T07:07:02;11.35;;;7.82;;
11346;SDS011;5728;42.722;23.258;2023-05-07T07:09:29;12.55;;;9.40;;
11346;SDS011;5728;42.722;23.258;2023-05-07T07:11:56;10.88;;;7.47;;
11346;SDS011;5728;42.722;23.258;2023-05-07T07:14:22;14.65;;;8.55;;
11346;SDS011;5728;42.722;23.258;2023-05-07T07:16:49;10.68;;;7.57;;
11346;SDS011;5728;42.722;23.258;2023-05-07T07:19:16;12.10;;;8.13;;
11346;SDS011;5728;42.722;23.258;2023-05-07T07:21:43;8.60;;;7.70;;
11346;SDS011;5728;42.722;23.258;2023-05-07T07:24:13;12.35;;;8.02;;
11346;SDS011;5728;42.722;23.258;2023-05-07T07:26:44;17.30;;;7.22;;
11346;SDS011;5728;42.722;23.258;2023-05-07T07:29:11;13.75;;;7.55;;
11346;SDS011;5728;42.722;23.258;2023-05-07T07:31:37;12.10;;;7.95;;
11346;SDS011;5728;42.722;23.258;2023-05-07T07:34:04;10.15;;;8.15;;
11346;SDS011;5728;42.722;23.258;2023-05-07T07:36:31;9.73;;;7.53;;
11346;SDS011;5728;42.722;23.258;2023-05-07T07:38:58;9.68;;;7.50;;
11346;SDS011;5728;42.722;23.258;2023-05-07T07:41:26;9.15;;;6.57;;
11346;SDS011;5728;42.722;23.258;2023-05-07T07:43:53;11.52;;;7.15;;
11346;SDS011;5728;42.722;23.258;2023-05-07T07:46:20;10.98;;;7.45;;
11346;SDS011;5728;42.722;23.258;2023-05-07T07:48:47;10.95;;;7.30;;
11346;SDS011;5728;42.722;23.258;2023-05-07T07:51:14;7.80;;;6.80;;
11346;SDS011;5728;42.722;23.258;2023-05-07T07:53:40;10.00;;;6.53;;
11346;SDS011;5728;42.722;23.258;2023-05-07T07:56:07;10.48;;;6.57;;
11346;SDS011;5728;42.722;23.258;2023-05-07T07:58:35;11.52;;;6.57;;
11346;SDS011;5728;42.722;23.258;2023-05-07T08:01:03;9.18;;;6.20;;
11346;SDS011;5728;42.722;23.258;2023-05-07T08:03:30;9.48;;;5.85;;
11346;SDS011;5728;42.722;23.258;2023-05-07T08:05:58;15.38;;;6.53;;
11346;SDS011;5728;42.722;23.258;2023-05-07T08:08:25;7.40;;;6.55;;
11346;SDS011;5728;42.722;23.258;2023-05-07T08:10:52;11.95;;;6.88;;
11346;SDS011;5728;42.722;23.258;2023-05-07T08:13:19;14.00;;;5.95;;
11346;SDS011;5728;42.722;23.258;2023-05-07T08:15:47;8.40;;;6.78;;
11346;SDS011;5728;42.722;23.258;2023-05-07T08:18:14;11.75;;;6.80;;
11346;SDS011;5728;42.722;23.258;2023-05-07T08:20:41;9.40;;;6.10;;
11346;SDS011;5728;42.722;23.258;2023-05-07T08:23:08;7.35;;;5.60;;
11346;SDS011;5728;42.722;23.258;2023-05-07T08:25:35;15.15;;;6.28;;
11346;SDS011;5728;42.722;23.258;2023-05-07T08:28:02;12.25;;;5.35;;
11346;SDS011;5728;42.722;23.258;2023-05-07T08:30:29;6.47;;;5.88;;
11346;SDS011;5728;42.722;23.258;2023-05-07T08:32:58;10.68;;;5.32;;
11346;SDS011;5728;42.722;23.258;2023-05-07T08:35:24;7.35;;;5.25;;
11346;SDS011;5728;42.722;23.258;2023-05-07T08:37:52;7.07;;;5.20;;
11346;SDS011;5728;42.722;23.258;2023-05-07T08:40:19;8.38;;;6.10;;
11346;SDS011;5728;42.722;23.258;2023-05-07T08:42:48;7.30;;;4.90;;
11346;SDS011;5728;42.722;23.258;2023-05-07T08:45:15;8.27;;;5.00;;
11346;SDS011;5728;42.722;23.258;2023-05-07T08:47:46;9.00;;;4.72;;
11346;SDS011;5728;42.722;23.258;2023-05-07T08:50:17;10.05;;;5.00;;
11346;SDS011;5728;42.722;23.258;2023-05-07T08:52:44;8.00;;;5.65;;
11346;SDS011;5728;42.722;23.258;2023-05-07T08:55:11;5.95;;;5.13;;
11346;SDS011;5728;42.722;23.258;2023-05-07T08:57:40;6.93;;;4.50;;
11346;SDS011;5728;42.722;23.258;2023-05-07T09:00:07;6.38;;;5.50;;
11346;SDS011;5728;42.722;23.258;2023-05-07T09:02:35;7.15;;;5.30;;
11346;SDS011;5728;42.722;23.258;2023-05-07T09:05:02;6.07;;;5.28;;
11346;SDS011;5728;42.722;23.258;2023-05-07T09:07:30;5.47;;;4.15;;
11346;SDS011;5728;42.722;23.258;2023-05-07T09:09:57;9.23;;;5.03;;
11346;SDS011;5728;42.722;23.258;2023-05-07T09:12:24;5.03;;;4.53;;
11346;SDS011;5728;42.722;23.258;2023-05-07T09:14:51;6.70;;;5.03;;
11346;SDS011;5728;42.722;23.258;2023-05-07T09:17:18;8.30;;;4.97;;
11346;SDS011;5728;42.722;23.258;2023-05-07T09:19:45;7.03;;;4.38;;
11346;SDS011;5728;42.722;23.258;2023-05-07T09:22:12;5.00;;;4.38;;
11346;SDS011;5728;42.722;23.258;2023-05-07T09:24:41;8.15;;;4.60;;
11346;SDS011;5728;42.722;23.258;2023-05-07T09:27:14;8.80;;;4.20;;
11346;SDS011;5728;42.722;23.258;2023-05-07T09:29:41;11.25;;;4.68;;
11346;SDS011;5728;42.722;23.258;2023-05-07T09:32:09;6.75;;;4.55;;
11346;SDS011;5728;42.722;23.258;2023-05-07T09:34:38;5.07;;;4.57;;
11346;SDS011;5728;42.722;23.258;2023-05-07T09:37:06;3.97;;;3.40;;
11346;SDS011;5728;42.722;23.258;2023-05-07T09:39:41;3.83;;;3.53;;
11346;SDS011;5728;42.722;23.258;2023-05-07T09:42:10;4.78;;;3.40;;
11346;SDS011;5728;42.722;23.258;2023-05-07T09:44:37;3.90;;;3.58;;
11346;SDS011;5728;42.722;23.258;2023-05-07T09:47:05;4.80;;;3.67;;
11346;SDS011;5728;42.722;23.258;2023-05-07T10:01:51;7.00;;;3.78;;
11346;SDS011;5728;42.722;23.258;2023-05-07T10:04:20;9.27;;;4.55;;
11346;SDS011;5728;42.722;23.258;2023-05-07T10:06:48;9.82;;;3.45;;
11346;SDS011;5728;42.722;23.258;2023-05-07T10:09:15;4.60;;;3.08;;
11346;SDS011;5728;42.722;23.258;2023-05-07T10:11:43;4.38;;;3.25;;
11346;SDS011;5728;42.722;23.258;2023-05-07T10:14:12;2.83;;;2.50;;
11346;SDS011;5728;42.722;23.258;2023-05-07T10:16:39;7.65;;;3.17;;
11346;SDS011;5728;42.722;23.258;2023-05-07T10:19:08;8.68;;;4.00;;
11346;SDS011;5728;42.722;23.258;2023-05-07T10:21:36;9.95;;;3.85;;
11346;SDS011;5728;42.722;23.258;2023-05-07T10:24:04;3.60;;;2.88;;
11346;SDS011;5728;42.722;23.258;2023-05-07T10:26:38;4.57;;;3.08;;
11346;SDS011;5728;42.722;23.258;2023-05-07T10:29:12;5.93;;;3.22;;
11346;SDS011;5728;42.722;23.258;2023-05-07T10:31:48;4.60;;;2.40;;
11346;SDS011;5728;42.722;23.258;2023-05-07T10:34:22;2.60;;;2.40;;
11346;SDS011;5728;42.722;23.258;2023-05-07T10:36:52;3.03;;;2.53;;
11346;SDS011;5728;42.722;23.258;2023-05-07T10:39:21;12.65;;;3.40;;
11346;SDS011;5728;42.722;23.258;2023-05-07T10:41:48;3.30;;;2.17;;
11346;SDS011;5728;42.722;23.258;2023-05-07T10:44:26;4.95;;;2.80;;
11346;SDS011;5728;42.722;23.258;2023-05-07T10:47:04;6.18;;;2.80;;
11346;SDS011;5728;42.722;23.258;2023-05-07T10:49:34;4.03;;;2.58;;
11346;SDS011;5728;42.722;23.258;2023-05-07T10:52:11;6.95;;;3.13;;
11346;SDS011;5728;42.722;23.258;2023-05-07T10:54:40;3.10;;;2.50;;
11346;SDS011;5728;42.722;23.258;2023-05-07T11:00:21;6.40;;;2.78;;
11346;SDS011;5728;42.722;23.258;2023-05-07T11:13:17;4.20;;;3.15;;
11346;SDS011;5728;42.722;23.258;2023-05-07T11:15:47;3.22;;;2.90;;
11346;SDS011;5728;42.722;23.258;2023-05-07T11:18:15;2.33;;;2.13;;
11346;SDS011;5728;42.722;23.258;2023-05-07T11:20:44;4.68;;;2.90;;
11346;SDS011;5728;42.722;23.258;2023-05-07T11:26:23;7.05;;;2.58;;
11346;SDS011;5728;42.722;23.258;2023-05-07T11:28:51;2.40;;;2.20;;
11346;SDS011;5728;42.722;23.258;2023-05-07T11:31:27;2.40;;;2.20;;
11346;SDS011;5728;42.722;23.258;2023-05-07T11:33:55;4.25;;;2.60;;
11346;SDS011;5728;42.722;23.258;2023-05-07T11:36:23;6.18;;;2.58;;
11346;SDS011;5728;42.722;23.258;2023-05-07T11:38:51;2.72;;;2.50;;
11346;SDS011;5728;42.722;23.258;2023-05-07T11:41:17;2.83;;;2.22;;
11346;SDS011;5728;42.722;23.258;2023-05-07T11:43:56;2.40;;;2.13;;
11346;SDS011;5728;42.722;23.258;2023-05-07T11:46:24;3.67;;;2.30;;
11346;SDS011;5728;42.722;23.258;2023-05-07T11:48:53;4.32;;;2.08;;
11346;SDS011;5728;42.722;23.258;2023-05-07T11:51:20;4.32;;;2.28;;
11346;SDS011;5728;42.722;23.258;2023-05-07T11:53:48;4.40;;;2.30;;
11346;SDS011;5728;42.722;23.258;2023-05-07T11:56:17;3.45;;;2.33;;
11346;SDS011;5728;42.722;23.258;2023-05-07T11:58:44;7.63;;;2.33;;
11346;SDS011;5728;42.722;23.258;2023-05-07T12:01:12;3.55;;;2.60;;
11346;SDS011;5728;42.722;23.258;2023-05-07T12:03:43;4.15;;;3.28;;
11346;SDS011;5728;42.722;23.258;2023-05-07T12:06:11;3.53;;;2.53;;
11346;SDS011;5728;42.722;23.258;2023-05-07T12:08:39;4.50;;;2.45;;
11346;SDS011;5728;42.722;23.258;2023-05-07T12:11:07;3.40;;;2.30;;
11346;SDS011;5728;42.722;23.258;2023-05-07T12:13:36;5.18;;;2.10;;
11346;SDS011;5728;42.722;23.258;2023-05-07T12:16:03;2.33;;;2.13;;
11346;SDS011;5728;42.722;23.258;2023-05-07T12:18:32;4.22;;;2.42;;
11346;SDS011;5728;42.722;23.258;2023-05-07T12:21:01;3.50;;;2.17;;
11346;SDS011;5728;42.722;23.258;2023-05-07T12:23:28;2.35;;;2.15;;
11346;SDS011;5728;42.722;23.258;2023-05-07T12:25:55;2.10;;;1.90;;
11346;SDS011;5728;42.722;23.258;2023-05-07T12:28:22;3.10;;;2.17;;
11346;SDS011;5728;42.722;23.258;2023-05-07T12:30:50;3.53;;;2.45;;
11346;SDS011;5728;42.722;23.258;2023-05-07T12:33:18;3.38;;;2.25;;
11346;SDS011;5728;42.722;23.258;2023-05-07T12:35:52;2.38;;;2.17;;
11346;SDS011;5728;42.722;23.258;2023-05-07T12:38:22;2.70;;;2.50;;
11346;SDS011;5728;42.722;23.258;2023-05-07T12:40:49;2.97;;;2.53;;
11346;SDS011;5728;42.722;23.258;2023-05-07T12:43:17;4.63;;;2.50;;
11346;SDS011;5728;42.722;23.258;2023-05-07T12:45:44;2.75;;;2.45;;
11346;SDS011;5728;42.722;23.258;2023-05-07T12:48:13;4.55;;;2.50;;
11346;SDS011;5728;42.722;23.258;2023-05-07T12:50:40;2.40;;;2.20;;
11346;SDS011;5728;42.722;23.258;2023-05-07T12:53:07;2.88;;;2.30;;
11346;SDS011;5728;42.722;23.258;2023-05-07T12:55:44;2.55;;;2.00;;
11346;SDS011;5728;42.722;23.258;2023-05-07T12:58:16;3.75;;;2.40;;
11346;SDS011;5728;42.722;23.258;2023-05-07T13:00:43;3.80;;;2.35;;
11346;SDS011;5728;42.722;23.258;2023-05-07T13:03:11;4.20;;;2.20;;
11346;SDS011;5728;42.722;23.258;2023-05-07T13:05:38;3.30;;;2.45;;
11346;SDS011;5728;42.722;23.258;2023-05-07T13:08:05;6.28;;;2.53;;
11346;SDS011;5728;42.722;23.258;2023-05-07T13:10:34;2.80;;;2.33;;
11346;SDS011;5728;42.722;23.258;2023-05-07T13:13:03;2.92;;;2.42;;
11346;SDS011;5728;42.722;23.258;2023-05-07T13:15:29;2.65;;;2.45;;
11346;SDS011;5728;42.722;23.258;2023-05-07T13:17:56;2.10;;;1.98;;
11346;SDS011;5728;42.722;23.258;2023-05-07T13:20:23;2.40;;;2.20;;
11346;SDS011;5728;42.722;23.258;2023-05-07T13:22:50;2.65;;;2.03;;
11346;SDS011;5728;42.722;23.258;2023-05-07T13:25:17;2.83;;;2.25;;
11346;SDS011;5728;42.722;23.258;2023-05-07T13:27:44;3.63;;;2.40;;
11346;SDS011;5728;42.722;23.258;2023-05-07T13:30:12;2.90;;;2.33;;
11346;SDS011;5728;42.722;23.258;2023-05-07T13:32:39;2.92;;;2.10;;
11346;SDS011;5728;42.722;23.258;2023-05-07T13:35:07;3.38;;;2.35;;
11346;SDS011;5728;42.722;23.258;2023-05-07T13:37:34;3.13;;;2.75;;
11346;SDS011;5728;42.722;23.258;2023-05-07T13:40:01;2.78;;;2.55;;
11346;SDS011;5728;42.722;23.258;2023-05-07T13:42:28;3.67;;;1.90;;
11346;SDS011;5728;42.722;23.258;2023-05-07T13:44:56;7.68;;;2.58;;
11346;SDS011;5728;42.722;23.258;2023-05-07T13:47:24;4.15;;;2.63;;
11346;SDS011;5728;42.722;23.258;2023-05-07T13:49:51;2.90;;;2.25;;
11346;SDS011;5728;42.722;23.258;2023-05-07T13:52:18;3.85;;;2.88;;
11346;SDS011;5728;42.722;23.258;2023-05-07T13:54:46;2.40;;;2.20;;
11346;SDS011;5728;42.722;23.258;2023-05-07T13:57:13;2.85;;;2.40;;
11346;SDS011;5728;42.722;23.258;2023-05-07T13:59:40;2.45;;;2.25;;
11346;SDS011;5728;42.722;23.258;2023-05-07T14:02:07;3.35;;;2.42;;
11346;SDS011;5728;42.722;23.258;2023-05-07T14:04:36;3.60;;;2.63;;
11346;SDS011;5728;42.722;23.258;2023-05-07T14:07:04;2.80;;;2.50;;
11346;SDS011;5728;42.722;23.258;2023-05-07T14:09:30;6.38;;;2.67;;
11346;SDS011;5728;42.722;23.258;2023-05-07T14:11:58;3.40;;;2.50;;
11346;SDS011;5728;42.722;23.258;2023-05-07T14:14:26;2.83;;;2.63;;
11346;SDS011;5728;42.722;23.258;2023-05-07T14:16:53;3.85;;;2.42;;
11346;SDS011;5728;42.722;23.258;2023-05-07T14:19:20;3.42;;;2.28;;
11346;SDS011;5728;42.722;23.258;2023-05-07T14:21:49;3.25;;;2.50;;
11346;SDS011;5728;42.722;23.258;2023-05-07T14:24:16;3.08;;;2.47;;
11346;SDS011;5728;42.722;23.258;2023-05-07T14:26:43;4.15;;;3.40;;
11346;SDS011;5728;42.722;23.258;2023-05-07T14:29:10;2.88;;;2.63;;
11346;SDS011;5728;42.722;23.258;2023-05-07T14:31:37;3.33;;;2.40;;
11346;SDS011;5728;42.722;23.258;2023-05-07T14:34:03;3.47;;;2.50;;
11346;SDS011;5728;42.722;23.258;2023-05-07T14:36:31;7.20;;;2.80;;
11346;SDS011;5728;42.722;23.258;2023-05-07T14:38:59;3.30;;;2.70;;
11346;SDS011;5728;42.722;23.258;2023-05-07T14:41:26;2.70;;;2.50;;
11346;SDS011;5728;42.722;23.258;2023-05-07T14:43:53;5.57;;;2.60;;
11346;SDS011;5728;42.722;23.258;2023-05-07T14:46:20;4.85;;;2.55;;
11346;SDS011;5728;42.722;23.258;2023-05-07T14:48:47;4.72;;;3.03;;
11346;SDS011;5728;42.722;23.258;2023-05-07T14:51:13;3.45;;;3.13;;
11346;SDS011;5728;42.722;23.258;2023-05-07T14:53:40;4.07;;;2.95;;
11346;SDS011;5728;42.722;23.258;2023-05-07T14:56:09;3.30;;;2.20;;
11346;SDS011;5728;42.722;23.258;2023-05-07T14:58:36;3.03;;;2.40;;
11346;SDS011;5728;42.722;23.258;2023-05-07T15:01:03;2.92;;;2.70;;
11346;SDS011;5728;42.722;23.258;2023-05-07T15:03:30;5.13;;;2.90;;
11346;SDS011;5728;42.722;23.258;2023-05-07T15:05:57;3.50;;;2.67;;
11346;SDS011;5728;42.722;23.258;2023-05-07T15:08:23;2.65;;;2.45;;
11346;SDS011;5728;42.722;23.258;2023-05-07T15:10:50;3.22;;;2.30;;
11346;SDS011;5728;42.722;23.258;2023-05-07T15:13:19;3.03;;;2.72;;
11346;SDS011;5728;42.722;23.258;2023-05-07T15:15:46;7.57;;;2.90;;
11346;SDS011;5728;42.722;23.258;2023-05-07T15:18:12;7.07;;;2.50;;
11346;SDS011;5728;42.722;23.258;2023-05-07T15:20:39;8.73;;;2.60;;
11346;SDS011;5728;42.722;23.258;2023-05-07T15:23:07;2.70;;;2.47;;
11346;SDS011;5728;42.722;23.258;2023-05-07T15:25:36;5.00;;;2.90;;
11346;SDS011;5728;42.722;23.258;2023-05-07T15:28:03;7.28;;;3.25;;
11346;SDS011;5728;42.722;23.258;2023-05-07T15:30:32;3.17;;;2.67;;
11346;SDS011;5728;42.722;23.258;2023-05-07T15:32:59;4.25;;;2.72;;
11346;SDS011;5728;42.722;23.258;2023-05-07T15:35:27;3.00;;;2.70;;
11346;SDS011;5728;42.722;23.258;2023-05-07T15:37:54;5.68;;;2.80;;
11346;SDS011;5728;42.722;23.258;2023-05-07T15:40:20;2.90;;;2.45;;
11346;SDS011;5728;42.722;23.258;2023-05-07T15:42:47;9.30;;;3.50;;
11346;SDS011;5728;42.722;23.258;2023-05-07T15:45:14;3.85;;;2.65;;
11346;SDS011;5728;42.722;23.258;2023-05-07T15:47:42;3.10;;;2.60;;
11346;SDS011;5728;42.722;23.258;2023-05-07T15:50:09;2.75;;;2.53;;
11346;SDS011;5728;42.722;23.258;2023-05-07T15:52:36;3.90;;;2.75;;
11346;SDS011;5728;42.722;23.258;2023-05-07T15:55:04;5.43;;;2.83;;
11346;SDS011;5728;42.722;23.258;2023-05-07T15:57:31;3.22;;;2.60;;
11346;SDS011;5728;42.722;23.258;2023-05-07T15:59:58;3.38;;;2.70;;
11346;SDS011;5728;42.722;23.258;2023-05-07T16:02:25;3.50;;;2.88;;
11346;SDS011;5728;42.722;23.258;2023-05-07T16:04:53;3.85;;;2.28;;
11346;SDS011;5728;42.722;23.258;2023-05-07T16:07:20;2.65;;;2.42;;
11346;SDS011;5728;42.722;23.258;2023-05-07T16:09:46;4.00;;;2.50;;
11346;SDS011;5728;42.722;23.258;2023-05-07T16:12:13;2.80;;;2.50;;
11346;SDS011;5728;42.722;23.258;2023-05-07T16:14:40;5.20;;;2.92;;
11346;SDS011;5728;42.722;23.258;2023-05-07T16:17:07;3.25;;;2.95;;
11346;SDS011;5728;42.722;23.258;2023-05-07T16:19:34;5.50;;;2.78;;
11346;SDS011;5728;42.722;23.258;2023-05-07T16:22:02;3.58;;;2.67;;
11346;SDS011;5728;42.722;23.258;2023-05-07T16:24:29;7.80;;;3.13;;
11346;SDS011;5728;42.722;23.258;2023-05-07T16:26:56;6.28;;;4.82;;
11346;SDS011;5728;42.722;23.258;2023-05-07T16:29:23;9.63;;;2.92;;
11346;SDS011;5728;42.722;23.258;2023-05-07T16:31:51;5.00;;;2.80;;
11346;SDS011;5728;42.722;23.258;2023-05-07T16:34:18;5.47;;;3.33;;
11346;SDS011;5728;42.722;23.258;2023-05-07T16:36:45;4.68;;;3.15;;
11346;SDS011;5728;42.722;23.258;2023-05-07T16:39:13;3.63;;;2.72;;
11346;SDS011;5728;42.722;23.258;2023-05-07T16:41:41;3.42;;;2.88;;
11346;SDS011;5728;42.722;23.258;2023-05-07T16:44:08;3.60;;;2.83;;
11346;SDS011;5728;42.722;23.258;2023-05-07T16:46:35;3.50;;;3.17;;
11346;SDS011;5728;42.722;23.258;2023-05-07T16:49:02;3.28;;;2.97;;
11346;SDS011;5728;42.722;23.258;2023-05-07T16:51:29;3.60;;;2.63;;
11346;SDS011;5728;42.722;23.258;2023-05-07T16:53:56;4.70;;;3.08;;
11346;SDS011;5728;42.722;23.258;2023-05-07T16:56:24;14.32;;;3.53;;
11346;SDS011;5728;42.722;23.258;2023-05-07T16:58:51;5.00;;;3.15;;
11346;SDS011;5728;42.722;23.258;2023-05-07T17:01:18;4.75;;;3.72;;
11346;SDS011;5728;42.722;23.258;2023-05-07T17:03:44;8.23;;;3.30;;
11346;SDS011;5728;42.722;23.258;2023-05-07T17:06:11;5.70;;;3.88;;
11346;SDS011;5728;42.722;23.258;2023-05-07T17:08:39;4.43;;;3.20;;
11346;SDS011;5728;42.722;23.258;2023-05-07T17:11:06;8.20;;;5.07;;
11346;SDS011;5728;42.722;23.258;2023-05-07T17:13:34;4.80;;;3.40;;
11346;SDS011;5728;42.722;23.258;2023-05-07T17:16:01;4.85;;;3.42;;
11346;SDS011;5728;42.722;23.258;2023-05-07T17:18:29;4.68;;;3.33;;
11346;SDS011;5728;42.722;23.258;2023-05-07T17:20:56;3.80;;;3.40;;
11346;SDS011;5728;42.722;23.258;2023-05-07T17:23:22;3.85;;;3.53;;
11346;SDS011;5728;42.722;23.258;2023-05-07T17:25:49;3.50;;;3.20;;
11346;SDS011;5728;42.722;23.258;2023-05-07T17:28:16;4.60;;;3.47;;
11346;SDS011;5728;42.722;23.258;2023-05-07T17:30:44;3.53;;;2.95;;
11346;SDS011;5728;42.722;23.258;2023-05-07T17:33:12;3.63;;;2.90;;
11346;SDS011;5728;42.722;23.258;2023-05-07T17:35:38;4.28;;;3.30;;
11346;SDS011;5728;42.722;23.258;2023-05-07T17:38:05;5.88;;;3.67;;
11346;SDS011;5728;42.722;23.258;2023-05-07T17:40:32;5.78;;;3.97;;
11346;SDS011;5728;42.722;23.258;2023-05-07T17:42:59;6.65;;;3.13;;
11346;SDS011;5728;42.722;23.258;2023-05-07T17:45:27;5.15;;;2.95;;
11346;SDS011;5728;42.722;23.258;2023-05-07T17:47:55;7.85;;;4.25;;
11346;SDS011;5728;42.722;23.258;2023-05-07T17:50:21;8.82;;;4.68;;
11346;SDS011;5728;42.722;23.258;2023-05-07T17:52:48;4.55;;;3.45;;
11346;SDS011;5728;42.722;23.258;2023-05-07T17:55:15;4.70;;;3.38;;
11346;SDS011;5728;42.722;23.258;2023-05-07T17:57:42;4.22;;;2.90;;
11346;SDS011;5728;42.722;23.258;2023-05-07T18:00:09;5.55;;;3.55;;
11346;SDS011;5728;42.722;23.258;2023-05-07T18:02:37;9.30;;;3.20;;
11346;SDS011;5728;42.722;23.258;2023-05-07T18:05:06;12.23;;;4.05;;
11346;SDS011;5728;42.722;23.258;2023-05-07T18:07:33;7.00;;;3.47;;
11346;SDS011;5728;42.722;23.258;2023-05-07T18:10:01;10.88;;;3.28;;
11346;SDS011;5728;42.722;23.258;2023-05-07T18:12:28;5.90;;;3.47;;
11346;SDS011;5728;42.722;23.258;2023-05-07T18:14:55;4.10;;;3.22;;
11346;SDS011;5728;42.722;23.258;2023-05-07T18:17:22;5.13;;;4.13;;
11346;SDS011;5728;42.722;23.258;2023-05-07T18:19:50;4.45;;;3.50;;
11346;SDS011;5728;42.722;23.258;2023-05-07T18:22:18;9.48;;;4.68;;
11346;SDS011;5728;42.722;23.258;2023-05-07T18:24:45;6.28;;;3.78;;
11346;SDS011;5728;42.722;23.258;2023-05-07T18:27:13;15.60;;;4.85;;
11346;SDS011;5728;42.722;23.258;2023-05-07T18:29:40;4.60;;;3.88;;
11346;SDS011;5728;42.722;23.258;2023-05-07T18:32:06;8.15;;;4.18;;
11346;SDS011;5728;42.722;23.258;2023-05-07T18:34:33;5.85;;;3.60;;
11346;SDS011;5728;42.722;23.258;2023-05-07T18:37:00;11.23;;;3.97;;
11346;SDS011;5728;42.722;23.258;2023-05-07T18:39:28;6.30;;;4.50;;
11346;SDS011;5728;42.722;23.258;2023-05-07T18:41:56;4.75;;;4.13;;
11346;SDS011;5728;42.722;23.258;2023-05-07T18:44:23;7.82;;;4.68;;
11346;SDS011;5728;42.722;23.258;2023-05-07T18:46:50;9.30;;;4.18;;
11346;SDS011;5728;42.722;23.258;2023-05-07T18:49:17;7.63;;;4.45;;
11346;SDS011;5728;42.722;23.258;2023-05-07T18:54:10;5.80;;;4.32;;
11346;SDS011;5728;42.722;23.258;2023-05-07T18:56:39;7.63;;;4.28;;
11346;SDS011;5728;42.722;23.258;2023-05-07T18:59:06;5.85;;;4.20;;
11346;SDS011;5728;42.722;23.258;2023-05-07T19:01:33;6.05;;;4.50;;
11346;SDS011;5728;42.722;23.258;2023-05-07T19:04:00;7.18;;;4.18;;
11346;SDS011;5728;42.722;23.258;2023-05-07T19:06:26;13.30;;;4.57;;
11346;SDS011;5728;42.722;23.258;2023-05-07T19:08:53;9.57;;;4.53;;
11346;SDS011;5728;42.722;23.258;2023-05-07T19:11:21;5.32;;;4.13;;